sensor_id;sensor_type;location;lat;lon;timestamp;P1;durP1;ratioP1;P2;durP2;ratioP2
17566;SDS011;8901;52.088;5.084;2023-07-29T00:21:36;3.63;;;2.95;;
17566;SDS011;8901;52.088;5.084;2023-07-29T00:24:10;3.40;;;3.10;;
17566;SDS011;8901;52.088;5.084;2023-07-29T00:29:50;3.63;;;2.85;;
17566;SDS011;8901;52.088;5.084;2023-07-29T00:38:07;3.40;;;3.05;;
17566;SDS011;8901;52.088;5.084;2023-07-29T00:40:35;3.58;;;3.28;;
17566;SDS011;8901;52.088;5.084;2023-07-29T00:57:51;7.22;;;3.35;;
17566;SDS011;8901;52.088;5.084;2023-07-29T01:00:31;5.32;;;3.45;;
17566;SDS011;8901;52.088;5.084;2023-07-29T01:03:06;3.45;;;3.15;;
17566;SDS011;8901;52.088;5.084;2023-07-29T01:08:16;4.28;;;3.67;;
17566;SDS011;8901;52.088;5.084;2023-07-29T01:10:46;4.88;;;3.50;;
17566;SDS011;8901;52.088;5.084;2023-07-29T01:16:04;6.20;;;3.67;;
17566;SDS011;8901;52.088;5.084;2023-07-29T01:18:32;5.13;;;3.70;;
17566;SDS011;8901;52.088;5.084;2023-07-29T01:21:12;4.55;;;3.55;;
17566;SDS011;8901;52.088;5.084;2023-07-29T01:23:48;4.47;;;3.75;;
17566;SDS011;8901;52.088;5.084;2023-07-29T01:26:34;5.45;;;3.60;;
17566;SDS011;8901;52.088;5.084;2023-07-29T01:29:18;5.18;;;3.63;;
17566;SDS011;8901;52.088;5.084;2023-07-29T01:31:47;5.13;;;3.60;;
17566;SDS011;8901;52.088;5.084;2023-07-29T01:34:22;5.18;;;4.07;;
17566;SDS011;8901;52.088;5.084;2023-07-29T01:40:06;4.78;;;3.90;;
17566;SDS011;8901;52.088;5.084;2023-07-29T01:45:45;5.35;;;3.72;;
17566;SDS011;8901;52.088;5.084;2023-07-29T01:50:58;5.97;;;4.10;;
17566;SDS011;8901;52.088;5.084;2023-07-29T01:53:25;4.30;;;3.80;;
17566;SDS011;8901;52.088;5.084;2023-07-29T01:58:53;4.47;;;3.92;;
17566;SDS011;8901;52.088;5.084;2023-07-29T02:01:21;10.52;;;4.38;;
17566;SDS011;8901;52.088;5.084;2023-07-29T02:03:48;5.37;;;4.40;;
17566;SDS011;8901;52.088;5.084;2023-07-29T02:06:20;8.82;;;5.00;;
17566;SDS011;8901;52.088;5.084;2023-07-29T02:08:47;5.50;;;4.77;;
17566;SDS011;8901;52.088;5.084;2023-07-29T02:11:14;7.93;;;4.20;;
17566;SDS011;8901;52.088;5.084;2023-07-29T02:13:41;4.47;;;3.88;;
17566;SDS011;8901;52.088;5.084;2023-07-29T02:16:10;4.72;;;4.05;;
17566;SDS011;8901;52.088;5.084;2023-07-29T02:18:37;5.15;;;4.15;;
17566;SDS011;8901;52.088;5.084;2023-07-29T02:21:04;5.30;;;4.80;;
17566;SDS011;8901;52.088;5.084;2023-07-29T02:23:31;6.47;;;4.38;;
17566;SDS011;8901;52.088;5.084;2023-07-29T02:25:58;5.57;;;4.55;;
17566;SDS011;8901;52.088;5.084;2023-07-29T02:28:26;5.47;;;4.07;;
17566;SDS011;8901;52.088;5.084;2023-07-29T02:33:37;5.38;;;3.97;;
17566;SDS011;8901;52.088;5.084;2023-07-29T02:36:04;6.00;;;4.10;;
17566;SDS011;8901;52.088;5.084;2023-07-29T02:38:31;5.05;;;4.47;;
17566;SDS011;8901;52.088;5.084;2023-07-29T02:40:58;5.78;;;4.07;;
17566;SDS011;8901;52.088;5.084;2023-07-29T02:43:26;5.07;;;3.70;;
17566;SDS011;8901;52.088;5.084;2023-07-29T02:45:53;5.50;;;3.85;;
17566;SDS011;8901;52.088;5.084;2023-07-29T02:48:20;6.38;;;3.92;;
17566;SDS011;8901;52.088;5.084;2023-07-29T02:50:48;4.53;;;4.13;;
17566;SDS011;8901;52.088;5.084;2023-07-29T02:53:16;4.05;;;3.65;;
17566;SDS011;8901;52.088;5.084;2023-07-29T02:55:43;4.45;;;3.80;;
17566;SDS011;8901;52.088;5.084;2023-07-29T02:58:10;6.25;;;4.07;;
17566;SDS011;8901;52.088;5.084;2023-07-29T03:00:37;4.40;;;3.80;;
17566;SDS011;8901;52.088;5.084;2023-07-29T03:03:06;9.35;;;3.92;;
17566;SDS011;8901;52.088;5.084;2023-07-29T03:05:34;4.35;;;3.97;;
17566;SDS011;8901;52.088;5.084;2023-07-29T03:08:04;3.78;;;3.47;;
17566;SDS011;8901;52.088;5.084;2023-07-29T03:10:31;3.90;;;3.58;;
17566;SDS011;8901;52.088;5.084;2023-07-29T03:12:58;3.92;;;3.60;;
17566;SDS011;8901;52.088;5.084;2023-07-29T03:15:25;4.25;;;3.85;;
17566;SDS011;8901;52.088;5.084;2023-07-29T03:17:52;4.35;;;3.95;;
17566;SDS011;8901;52.088;5.084;2023-07-29T03:20:20;5.03;;;3.60;;
17566;SDS011;8901;52.088;5.084;2023-07-29T03:22:47;4.25;;;3.60;;
17566;SDS011;8901;52.088;5.084;2023-07-29T03:25:15;4.10;;;3.70;;
17566;SDS011;8901;52.088;5.084;2023-07-29T03:27:43;4.13;;;3.72;;
17566;SDS011;8901;52.088;5.084;2023-07-29T03:30:14;4.75;;;3.70;;
17566;SDS011;8901;52.088;5.084;2023-07-29T03:32:43;4.22;;;3.40;;
17566;SDS011;8901;52.088;5.084;2023-07-29T03:35:10;4.05;;;3.70;;
17566;SDS011;8901;52.088;5.084;2023-07-29T03:37:38;4.57;;;4.00;;
17566;SDS011;8901;52.088;5.084;2023-07-29T03:40:05;5.60;;;3.80;;
17566;SDS011;8901;52.088;5.084;2023-07-29T03:42:35;4.18;;;3.75;;
17566;SDS011;8901;52.088;5.084;2023-07-29T03:45:04;3.88;;;3.58;;
17566;SDS011;8901;52.088;5.084;2023-07-29T03:47:31;3.72;;;3.42;;
17566;SDS011;8901;52.088;5.084;2023-07-29T03:49:59;3.42;;;3.20;;
17566;SDS011;8901;52.088;5.084;2023-07-29T03:52:26;3.58;;;3.30;;
17566;SDS011;8901;52.088;5.084;2023-07-29T03:54:53;4.63;;;3.53;;
17566;SDS011;8901;52.088;5.084;2023-07-29T03:57:21;4.95;;;3.88;;
17566;SDS011;8901;52.088;5.084;2023-07-29T03:59:49;3.53;;;3.15;;
17566;SDS011;8901;52.088;5.084;2023-07-29T04:02:16;3.47;;;3.17;;
17566;SDS011;8901;52.088;5.084;2023-07-29T04:04:43;3.70;;;3.40;;
17566;SDS011;8901;52.088;5.084;2023-07-29T04:07:12;4.00;;;3.60;;
17566;SDS011;8901;52.088;5.084;2023-07-29T04:09:39;5.50;;;3.78;;
17566;SDS011;8901;52.088;5.084;2023-07-29T04:12:08;3.97;;;3.60;;
17566;SDS011;8901;52.088;5.084;2023-07-29T04:14:52;4.13;;;3.75;;
17566;SDS011;8901;52.088;5.084;2023-07-29T04:17:19;3.95;;;3.55;;
17566;SDS011;8901;52.088;5.084;2023-07-29T04:19:46;4.22;;;3.85;;
17566;SDS011;8901;52.088;5.084;2023-07-29T04:22:14;4.22;;;3.92;;
17566;SDS011;8901;52.088;5.084;2023-07-29T04:24:41;4.10;;;3.70;;
17566;SDS011;8901;52.088;5.084;2023-07-29T04:27:08;3.90;;;3.60;;
17566;SDS011;8901;52.088;5.084;2023-07-29T04:29:35;3.67;;;3.42;;
17566;SDS011;8901;52.088;5.084;2023-07-29T04:32:05;4.25;;;3.95;;
17566;SDS011;8901;52.088;5.084;2023-07-29T04:34:32;4.00;;;3.70;;
17566;SDS011;8901;52.088;5.084;2023-07-29T04:36:59;4.47;;;4.07;;
17566;SDS011;8901;52.088;5.084;2023-07-29T04:39:26;3.58;;;3.28;;
17566;SDS011;8901;52.088;5.084;2023-07-29T04:41:54;4.60;;;4.03;;
17566;SDS011;8901;52.088;5.084;2023-07-29T04:44:22;5.38;;;4.00;;
17566;SDS011;8901;52.088;5.084;2023-07-29T04:46:49;4.25;;;3.95;;
17566;SDS011;8901;52.088;5.084;2023-07-29T04:49:18;4.25;;;3.95;;
17566;SDS011;8901;52.088;5.084;2023-07-29T04:51:45;4.00;;;3.70;;
17566;SDS011;8901;52.088;5.084;2023-07-29T04:54:12;4.15;;;3.85;;
17566;SDS011;8901;52.088;5.084;2023-07-29T04:56:39;6.30;;;3.90;;
17566;SDS011;8901;52.088;5.084;2023-07-29T04:59:06;4.15;;;3.50;;
17566;SDS011;8901;52.088;5.084;2023-07-29T05:01:34;4.18;;;3.80;;
17566;SDS011;8901;52.088;5.084;2023-07-29T05:04:01;4.55;;;3.60;;
17566;SDS011;8901;52.088;5.084;2023-07-29T05:06:29;4.63;;;3.65;;
17566;SDS011;8901;52.088;5.084;2023-07-29T05:08:57;4.28;;;3.80;;
17566;SDS011;8901;52.088;5.084;2023-07-29T05:11:24;4.18;;;3.88;;
17566;SDS011;8901;52.088;5.084;2023-07-29T05:13:51;5.67;;;4.17;;
17566;SDS011;8901;52.088;5.084;2023-07-29T05:16:18;4.40;;;4.03;;
17566;SDS011;8901;52.088;5.084;2023-07-29T05:18:45;6.30;;;4.45;;
17566;SDS011;8901;52.088;5.084;2023-07-29T05:21:13;3.88;;;3.58;;
17566;SDS011;8901;52.088;5.084;2023-07-29T05:23:41;4.43;;;3.78;;
17566;SDS011;8901;52.088;5.084;2023-07-29T05:26:08;4.22;;;3.83;;
17566;SDS011;8901;52.088;5.084;2023-07-29T05:28:36;5.68;;;4.35;;
17566;SDS011;8901;52.088;5.084;2023-07-29T05:31:03;6.18;;;4.43;;
17566;SDS011;8901;52.088;5.084;2023-07-29T05:33:30;5.45;;;4.40;;
17566;SDS011;8901;52.088;5.084;2023-07-29T05:35:57;4.43;;;4.03;;
17566;SDS011;8901;52.088;5.084;2023-07-29T05:38:25;5.25;;;4.47;;
17566;SDS011;8901;52.088;5.084;2023-07-29T05:40:54;4.97;;;4.50;;
17566;SDS011;8901;52.088;5.084;2023-07-29T05:43:21;4.35;;;3.95;;
17566;SDS011;8901;52.088;5.084;2023-07-29T05:45:48;6.10;;;5.30;;
17566;SDS011;8901;52.088;5.084;2023-07-29T05:48:16;5.32;;;4.82;;
17566;SDS011;8901;52.088;5.084;2023-07-29T05:50:43;6.00;;;5.40;;
17566;SDS011;8901;52.088;5.084;2023-07-29T05:53:10;5.25;;;4.60;;
17566;SDS011;8901;52.088;5.084;2023-07-29T05:55:37;4.95;;;4.45;;
17566;SDS011;8901;52.088;5.084;2023-07-29T05:58:06;6.20;;;4.70;;
17566;SDS011;8901;52.088;5.084;2023-07-29T06:00:33;5.53;;;4.80;;
17566;SDS011;8901;52.088;5.084;2023-07-29T06:03:00;5.82;;;4.85;;
17566;SDS011;8901;52.088;5.084;2023-07-29T06:05:27;6.28;;;5.00;;
17566;SDS011;8901;52.088;5.084;2023-07-29T06:07:54;7.80;;;5.17;;
17566;SDS011;8901;52.088;5.084;2023-07-29T06:10:21;5.38;;;4.88;;
17566;SDS011;8901;52.088;5.084;2023-07-29T06:12:49;5.23;;;4.73;;
17566;SDS011;8901;52.088;5.084;2023-07-29T06:15:18;6.40;;;5.07;;
17566;SDS011;8901;52.088;5.084;2023-07-29T06:17:47;8.13;;;5.55;;
17566;SDS011;8901;52.088;5.084;2023-07-29T06:20:15;5.83;;;5.23;;
17566;SDS011;8901;52.088;5.084;2023-07-29T06:22:42;6.95;;;5.20;;
17566;SDS011;8901;52.088;5.084;2023-07-29T06:25:09;5.10;;;4.60;;
17566;SDS011;8901;52.088;5.084;2023-07-29T06:27:37;6.53;;;5.47;;
17566;SDS011;8901;52.088;5.084;2023-07-29T06:30:04;6.00;;;5.23;;
17566;SDS011;8901;52.088;5.084;2023-07-29T06:32:33;8.82;;;4.88;;
17566;SDS011;8901;52.088;5.084;2023-07-29T06:35:00;5.80;;;5.30;;
17566;SDS011;8901;52.088;5.084;2023-07-29T06:37:27;8.57;;;5.22;;
17566;SDS011;8901;52.088;5.084;2023-07-29T06:39:55;7.13;;;5.23;;
17566;SDS011;8901;52.088;5.084;2023-07-29T06:42:22;5.47;;;4.97;;
17566;SDS011;8901;52.088;5.084;2023-07-29T06:44:49;7.47;;;4.73;;
17566;SDS011;8901;52.088;5.084;2023-07-29T06:47:16;6.13;;;5.23;;
17566;SDS011;8901;52.088;5.084;2023-07-29T06:49:45;5.27;;;4.80;;
17566;SDS011;8901;52.088;5.084;2023-07-29T06:52:12;5.65;;;4.80;;
17566;SDS011;8901;52.088;5.084;2023-07-29T06:54:40;7.13;;;5.40;;
17566;SDS011;8901;52.088;5.084;2023-07-29T06:57:07;5.10;;;4.70;;
17566;SDS011;8901;52.088;5.084;2023-07-29T06:59:34;9.20;;;4.53;;
17566;SDS011;8901;52.088;5.084;2023-07-29T07:02:01;6.47;;;4.87;;
17566;SDS011;8901;52.088;5.084;2023-07-29T07:04:29;5.83;;;5.00;;
17566;SDS011;8901;52.088;5.084;2023-07-29T07:06:57;6.18;;;5.40;;
17566;SDS011;8901;52.088;5.084;2023-07-29T07:09:24;5.43;;;4.93;;
17566;SDS011;8901;52.088;5.084;2023-07-29T07:11:51;7.80;;;5.50;;
17566;SDS011;8901;52.088;5.084;2023-07-29T07:14:18;5.85;;;5.25;;
17566;SDS011;8901;52.088;5.084;2023-07-29T07:16:46;4.95;;;4.53;;
17566;SDS011;8901;52.088;5.084;2023-07-29T07:19:13;5.40;;;4.57;;
17566;SDS011;8901;52.088;5.084;2023-07-29T07:21:40;7.37;;;4.77;;
17566;SDS011;8901;52.088;5.084;2023-07-29T07:24:08;6.13;;;4.77;;
17566;SDS011;8901;52.088;5.084;2023-07-29T07:26:36;6.07;;;4.93;;
17566;SDS011;8901;52.088;5.084;2023-07-29T07:29:03;8.20;;;5.40;;
17566;SDS011;8901;52.088;5.084;2023-07-29T07:31:32;5.82;;;5.32;;
17566;SDS011;8901;52.088;5.084;2023-07-29T07:34:00;6.50;;;4.90;;
17566;SDS011;8901;52.088;5.084;2023-07-29T07:36:28;7.70;;;4.60;;
17566;SDS011;8901;52.088;5.084;2023-07-29T07:38:58;5.40;;;4.90;;
17566;SDS011;8901;52.088;5.084;2023-07-29T07:41:26;6.00;;;5.40;;
17566;SDS011;8901;52.088;5.084;2023-07-29T07:43:53;6.93;;;5.10;;
17566;SDS011;8901;52.088;5.084;2023-07-29T07:46:22;9.87;;;5.57;;
17566;SDS011;8901;52.088;5.084;2023-07-29T07:48:49;6.63;;;4.87;;
17566;SDS011;8901;52.088;5.084;2023-07-29T07:51:16;6.97;;;4.80;;
17566;SDS011;8901;52.088;5.084;2023-07-29T07:53:43;4.32;;;3.92;;
17566;SDS011;8901;52.088;5.084;2023-07-29T07:56:11;5.13;;;4.73;;
17566;SDS011;8901;52.088;5.084;2023-07-29T07:58:39;4.22;;;3.92;;
17566;SDS011;8901;52.088;5.084;2023-07-29T08:01:07;4.93;;;4.30;;
17566;SDS011;8901;52.088;5.084;2023-07-29T08:03:35;4.60;;;4.20;;
17566;SDS011;8901;52.088;5.084;2023-07-29T08:06:02;5.03;;;4.20;;
17566;SDS011;8901;52.088;5.084;2023-07-29T08:08:29;4.88;;;4.35;;
17566;SDS011;8901;52.088;5.084;2023-07-29T08:10:57;4.93;;;4.03;;
17566;SDS011;8901;52.088;5.084;2023-07-29T08:13:24;4.37;;;3.87;;
17566;SDS011;8901;52.088;5.084;2023-07-29T08:15:53;5.80;;;4.25;;
17566;SDS011;8901;52.088;5.084;2023-07-29T08:18:20;4.57;;;3.85;;
17566;SDS011;8901;52.088;5.084;2023-07-29T08:20:53;4.05;;;3.65;;
17566;SDS011;8901;52.088;5.084;2023-07-29T08:23:23;4.40;;;3.67;;
17566;SDS011;8901;52.088;5.084;2023-07-29T08:25:52;7.25;;;4.50;;
17566;SDS011;8901;52.088;5.084;2023-07-29T08:28:21;5.18;;;4.15;;
17566;SDS011;8901;52.088;5.084;2023-07-29T08:30:48;4.57;;;3.80;;
17566;SDS011;8901;52.088;5.084;2023-07-29T08:33:17;4.37;;;3.97;;
17566;SDS011;8901;52.088;5.084;2023-07-29T08:35:44;4.93;;;3.80;;
17566;SDS011;8901;52.088;5.084;2023-07-29T08:38:11;4.63;;;4.25;;
17566;SDS011;8901;52.088;5.084;2023-07-29T08:40:41;6.70;;;4.30;;
17566;SDS011;8901;52.088;5.084;2023-07-29T08:43:09;4.47;;;4.07;;
17566;SDS011;8901;52.088;5.084;2023-07-29T08:45:37;5.53;;;4.45;;
17566;SDS011;8901;52.088;5.084;2023-07-29T08:48:06;4.60;;;4.07;;
17566;SDS011;8901;52.088;5.084;2023-07-29T08:50:35;6.00;;;4.15;;
17566;SDS011;8901;52.088;5.084;2023-07-29T08:53:03;4.75;;;4.22;;
17566;SDS011;8901;52.088;5.084;2023-07-29T08:55:31;5.70;;;3.65;;
17566;SDS011;8901;52.088;5.084;2023-07-29T08:57:59;8.75;;;4.22;;
17566;SDS011;8901;52.088;5.084;2023-07-29T09:00:26;4.68;;;4.03;;
17566;SDS011;8901;52.088;5.084;2023-07-29T09:02:54;5.35;;;4.03;;
17566;SDS011;8901;52.088;5.084;2023-07-29T09:05:27;5.47;;;4.20;;
17566;SDS011;8901;52.088;5.084;2023-07-29T09:07:56;6.85;;;4.20;;
17566;SDS011;8901;52.088;5.084;2023-07-29T09:10:23;5.00;;;4.60;;
17566;SDS011;8901;52.088;5.084;2023-07-29T09:12:52;4.50;;;4.13;;
17566;SDS011;8901;52.088;5.084;2023-07-29T09:15:26;4.75;;;4.35;;
17566;SDS011;8901;52.088;5.084;2023-07-29T09:17:55;4.47;;;4.05;;
17566;SDS011;8901;52.088;5.084;2023-07-29T09:20:25;4.65;;;4.25;;
17566;SDS011;8901;52.088;5.084;2023-07-29T09:22:55;5.07;;;4.38;;
17566;SDS011;8901;52.088;5.084;2023-07-29T09:25:25;4.43;;;4.03;;
17566;SDS011;8901;52.088;5.084;2023-07-29T09:27:52;7.13;;;4.72;;
17566;SDS011;8901;52.088;5.084;2023-07-29T09:30:20;8.70;;;5.20;;
17566;SDS011;8901;52.088;5.084;2023-07-29T09:32:47;8.63;;;5.35;;
17566;SDS011;8901;52.088;5.084;2023-07-29T09:35:14;6.40;;;5.18;;
17566;SDS011;8901;52.088;5.084;2023-07-29T09:37:41;8.90;;;5.47;;
17566;SDS011;8901;52.088;5.084;2023-07-29T09:40:13;5.55;;;4.95;;
17566;SDS011;8901;52.088;5.084;2023-07-29T09:42:48;5.03;;;4.55;;
17566;SDS011;8901;52.088;5.084;2023-07-29T09:45:20;5.45;;;4.95;;
17566;SDS011;8901;52.088;5.084;2023-07-29T09:47:47;6.18;;;4.85;;
17566;SDS011;8901;52.088;5.084;2023-07-29T09:50:14;5.18;;;4.50;;
17566;SDS011;8901;52.088;5.084;2023-07-29T09:52:42;5.45;;;4.50;;
17566;SDS011;8901;52.088;5.084;2023-07-29T09:55:10;7.85;;;4.72;;
17566;SDS011;8901;52.088;5.084;2023-07-29T09:57:37;5.88;;;4.25;;
17566;SDS011;8901;52.088;5.084;2023-07-29T10:00:07;5.90;;;4.50;;
17566;SDS011;8901;52.088;5.084;2023-07-29T10:02:36;5.00;;;4.53;;
17566;SDS011;8901;52.088;5.084;2023-07-29T10:05:04;5.70;;;4.85;;
17566;SDS011;8901;52.088;5.084;2023-07-29T10:07:32;5.10;;;4.70;;
17566;SDS011;8901;52.088;5.084;2023-07-29T10:10:01;6.38;;;4.97;;
17566;SDS011;8901;52.088;5.084;2023-07-29T10:12:30;5.70;;;5.20;;
17566;SDS011;8901;52.088;5.084;2023-07-29T10:14:58;5.25;;;4.45;;
17566;SDS011;8901;52.088;5.084;2023-07-29T10:17:27;4.97;;;4.43;;
17566;SDS011;8901;52.088;5.084;2023-07-29T10:19:55;5.87;;;5.20;;
17566;SDS011;8901;52.088;5.084;2023-07-29T10:22:24;5.68;;;5.18;;
17566;SDS011;8901;52.088;5.084;2023-07-29T10:24:59;5.38;;;4.88;;
17566;SDS011;8901;52.088;5.084;2023-07-29T10:27:29;5.70;;;4.95;;
17566;SDS011;8901;52.088;5.084;2023-07-29T10:29:56;5.63;;;5.03;;
17566;SDS011;8901;52.088;5.084;2023-07-29T10:32:25;5.93;;;5.20;;
17566;SDS011;8901;52.088;5.084;2023-07-29T10:34:54;6.72;;;5.10;;
17566;SDS011;8901;52.088;5.084;2023-07-29T10:37:22;4.70;;;4.30;;
17566;SDS011;8901;52.088;5.084;2023-07-29T10:39:54;4.68;;;4.28;;
17566;SDS011;8901;52.088;5.084;2023-07-29T10:42:22;7.18;;;3.95;;
17566;SDS011;8901;52.088;5.084;2023-07-29T10:44:51;5.13;;;4.25;;
17566;SDS011;8901;52.088;5.084;2023-07-29T10:47:23;4.22;;;3.67;;
17566;SDS011;8901;52.088;5.084;2023-07-29T10:49:51;3.58;;;3.30;;
17566;SDS011;8901;52.088;5.084;2023-07-29T10:52:30;4.13;;;3.73;;
17566;SDS011;8901;52.088;5.084;2023-07-29T10:54:58;3.20;;;3.00;;
17566;SDS011;8901;52.088;5.084;2023-07-29T10:57:31;4.60;;;3.17;;
17566;SDS011;8901;52.088;5.084;2023-07-29T10:59:59;3.30;;;3.00;;
17566;SDS011;8901;52.088;5.084;2023-07-29T11:02:30;3.28;;;2.97;;
17566;SDS011;8901;52.088;5.084;2023-07-29T11:04:58;3.28;;;2.97;;
17566;SDS011;8901;52.088;5.084;2023-07-29T11:07:26;2.92;;;2.72;;
17566;SDS011;8901;52.088;5.084;2023-07-29T11:10:01;2.97;;;2.78;;
17566;SDS011;8901;52.088;5.084;2023-07-29T11:12:34;3.45;;;2.70;;
17566;SDS011;8901;52.088;5.084;2023-07-29T11:15:00;2.85;;;2.65;;
17566;SDS011;8901;52.088;5.084;2023-07-29T11:17:30;2.92;;;2.60;;
17566;SDS011;8901;52.088;5.084;2023-07-29T11:19:59;3.97;;;2.80;;
17566;SDS011;8901;52.088;5.084;2023-07-29T11:22:27;3.20;;;2.97;;
17566;SDS011;8901;52.088;5.084;2023-07-29T11:24:55;2.78;;;2.50;;
17566;SDS011;8901;52.088;5.084;2023-07-29T11:27:23;3.50;;;2.60;;
17566;SDS011;8901;52.088;5.084;2023-07-29T11:29:56;3.40;;;3.10;;
17566;SDS011;8901;52.088;5.084;2023-07-29T11:32:23;3.80;;;2.97;;
17566;SDS011;8901;52.088;5.084;2023-07-29T11:34:51;3.40;;;3.10;;
17566;SDS011;8901;52.088;5.084;2023-07-29T11:37:18;3.15;;;2.92;;
17566;SDS011;8901;52.088;5.084;2023-07-29T11:39:47;3.65;;;2.80;;
17566;SDS011;8901;52.088;5.084;2023-07-29T11:42:14;4.32;;;2.95;;
17566;SDS011;8901;52.088;5.084;2023-07-29T11:44:43;3.40;;;3.10;;
17566;SDS011;8901;52.088;5.084;2023-07-29T11:47:10;3.80;;;3.13;;
17566;SDS011;8901;52.088;5.084;2023-07-29T11:49:39;3.92;;;3.35;;
17566;SDS011;8901;52.088;5.084;2023-07-29T11:52:06;3.65;;;3.35;;
17566;SDS011;8901;52.088;5.084;2023-07-29T11:54:34;3.70;;;3.40;;
17566;SDS011;8901;52.088;5.084;2023-07-29T11:57:02;3.50;;;3.30;;
17566;SDS011;8901;52.088;5.084;2023-07-29T11:59:30;3.25;;;3.05;;
17566;SDS011;8901;52.088;5.084;2023-07-29T12:02:00;3.60;;;3.30;;
17566;SDS011;8901;52.088;5.084;2023-07-29T12:04:28;3.25;;;3.05;;
17566;SDS011;8901;52.088;5.084;2023-07-29T12:06:55;3.53;;;3.22;;
17566;SDS011;8901;52.088;5.084;2023-07-29T12:09:23;3.30;;;3.10;;
17566;SDS011;8901;52.088;5.084;2023-07-29T12:11:52;3.10;;;2.90;;
17566;SDS011;8901;52.088;5.084;2023-07-29T12:14:19;3.10;;;2.90;;
17566;SDS011;8901;52.088;5.084;2023-07-29T12:16:47;3.65;;;3.20;;
17566;SDS011;8901;52.088;5.084;2023-07-29T12:19:16;3.40;;;3.10;;
17566;SDS011;8901;52.088;5.084;2023-07-29T12:21:43;3.80;;;3.50;;
17566;SDS011;8901;52.088;5.084;2023-07-29T12:24:11;4.60;;;3.50;;
17566;SDS011;8901;52.088;5.084;2023-07-29T12:26:39;3.50;;;3.20;;
17566;SDS011;8901;52.088;5.084;2023-07-29T12:29:13;3.60;;;3.40;;
17566;SDS011;8901;52.088;5.084;2023-07-29T12:31:40;3.90;;;3.47;;
17566;SDS011;8901;52.088;5.084;2023-07-29T12:34:08;3.50;;;3.20;;
17566;SDS011;8901;52.088;5.084;2023-07-29T12:36:43;3.30;;;3.10;;
17566;SDS011;8901;52.088;5.084;2023-07-29T12:39:17;3.47;;;3.17;;
17566;SDS011;8901;52.088;5.084;2023-07-29T12:41:45;3.97;;;3.30;;
17566;SDS011;8901;52.088;5.084;2023-07-29T12:44:12;5.25;;;3.33;;
17566;SDS011;8901;52.088;5.084;2023-07-29T12:46:39;3.50;;;3.30;;
17566;SDS011;8901;52.088;5.084;2023-07-29T12:49:07;3.80;;;3.50;;
17566;SDS011;8901;52.088;5.084;2023-07-29T12:51:34;3.90;;;3.60;;
17566;SDS011;8901;52.088;5.084;2023-07-29T12:54:03;3.90;;;3.60;;
17566;SDS011;8901;52.088;5.084;2023-07-29T12:56:31;4.00;;;3.60;;
17566;SDS011;8901;52.088;5.084;2023-07-29T12:58:58;4.00;;;3.70;;
17566;SDS011;8901;52.088;5.084;2023-07-29T13:01:26;4.53;;;3.85;;
17566;SDS011;8901;52.088;5.084;2023-07-29T13:03:55;4.03;;;3.72;;
17566;SDS011;8901;52.088;5.084;2023-07-29T13:06:22;4.05;;;3.75;;
17566;SDS011;8901;52.088;5.084;2023-07-29T13:08:50;3.58;;;3.35;;
17566;SDS011;8901;52.088;5.084;2023-07-29T13:11:19;4.60;;;3.65;;
17566;SDS011;8901;52.088;5.084;2023-07-29T13:13:46;3.85;;;3.55;;
17566;SDS011;8901;52.088;5.084;2023-07-29T13:16:13;4.20;;;3.80;;
17566;SDS011;8901;52.088;5.084;2023-07-29T13:18:41;5.40;;;3.90;;
17566;SDS011;8901;52.088;5.084;2023-07-29T13:21:09;4.07;;;3.78;;
17566;SDS011;8901;52.088;5.084;2023-07-29T13:23:37;4.10;;;3.80;;
17566;SDS011;8901;52.088;5.084;2023-07-29T13:26:05;4.43;;;4.03;;
17566;SDS011;8901;52.088;5.084;2023-07-29T13:28:36;4.45;;;4.05;;
17566;SDS011;8901;52.088;5.084;2023-07-29T13:31:03;5.72;;;3.67;;
17566;SDS011;8901;52.088;5.084;2023-07-29T13:33:32;4.00;;;3.70;;
17566;SDS011;8901;52.088;5.084;2023-07-29T13:36:01;4.20;;;3.88;;
17566;SDS011;8901;52.088;5.084;2023-07-29T13:38:29;4.15;;;3.85;;
17566;SDS011;8901;52.088;5.084;2023-07-29T13:40:56;4.88;;;3.92;;
17566;SDS011;8901;52.088;5.084;2023-07-29T13:43:27;3.80;;;3.42;;
17566;SDS011;8901;52.088;5.084;2023-07-29T13:45:57;4.07;;;3.65;;
17566;SDS011;8901;52.088;5.084;2023-07-29T13:48:24;4.45;;;3.53;;
17566;SDS011;8901;52.088;5.084;2023-07-29T13:50:52;4.00;;;3.60;;
17566;SDS011;8901;52.088;5.084;2023-07-29T13:53:21;4.20;;;3.80;;
17566;SDS011;8901;52.088;5.084;2023-07-29T13:55:52;4.13;;;3.75;;
17566;SDS011;8901;52.088;5.084;2023-07-29T13:58:21;4.00;;;3.40;;
17566;SDS011;8901;52.088;5.084;2023-07-29T14:00:48;5.68;;;3.67;;
17566;SDS011;8901;52.088;5.084;2023-07-29T14:03:17;4.18;;;3.55;;
17566;SDS011;8901;52.088;5.084;2023-07-29T14:05:46;3.95;;;3.60;;
17566;SDS011;8901;52.088;5.084;2023-07-29T14:08:15;3.90;;;3.60;;
17566;SDS011;8901;52.088;5.084;2023-07-29T14:10:44;4.00;;;3.58;;
17566;SDS011;8901;52.088;5.084;2023-07-29T14:13:13;4.10;;;3.70;;
17566;SDS011;8901;52.088;5.084;2023-07-29T14:15:42;4.20;;;3.80;;
17566;SDS011;8901;52.088;5.084;2023-07-29T14:18:09;4.28;;;3.88;;
17566;SDS011;8901;52.088;5.084;2023-07-29T14:20:41;3.47;;;3.28;;
17566;SDS011;8901;52.088;5.084;2023-07-29T14:23:09;14.13;;;11.63;;
17566;SDS011;8901;52.088;5.084;2023-07-29T14:25:37;5.78;;;5.28;;
17566;SDS011;8901;52.088;5.084;2023-07-29T14:28:09;8.50;;;7.63;;
17566;SDS011;8901;52.088;5.084;2023-07-29T14:30:38;4.40;;;4.10;;
17566;SDS011;8901;52.088;5.084;2023-07-29T14:33:06;6.60;;;5.93;;
17566;SDS011;8901;52.088;5.084;2023-07-29T14:35:34;7.65;;;6.88;;
17566;SDS011;8901;52.088;5.084;2023-07-29T14:38:05;5.63;;;4.65;;
17566;SDS011;8901;52.088;5.084;2023-07-29T14:40:33;5.25;;;4.90;;
17566;SDS011;8901;52.088;5.084;2023-07-29T14:43:02;6.07;;;5.50;;
17566;SDS011;8901;52.088;5.084;2023-07-29T14:45:30;4.45;;;4.03;;
17566;SDS011;8901;52.088;5.084;2023-07-29T14:47:59;4.30;;;3.90;;
17566;SDS011;8901;52.088;5.084;2023-07-29T14:50:28;8.65;;;7.43;;
17566;SDS011;8901;52.088;5.084;2023-07-29T14:52:57;5.60;;;5.10;;
17566;SDS011;8901;52.088;5.084;2023-07-29T14:55:26;5.93;;;5.35;;
17566;SDS011;8901;52.088;5.084;2023-07-29T14:57:57;4.78;;;4.43;;
17566;SDS011;8901;52.088;5.084;2023-07-29T15:00:25;7.05;;;5.93;;
17566;SDS011;8901;52.088;5.084;2023-07-29T15:02:54;7.22;;;6.50;;
17566;SDS011;8901;52.088;5.084;2023-07-29T15:05:22;6.03;;;5.55;;
17566;SDS011;8901;52.088;5.084;2023-07-29T15:07:49;5.78;;;5.28;;
17566;SDS011;8901;52.088;5.084;2023-07-29T15:10:18;8.40;;;7.60;;
17566;SDS011;8901;52.088;5.084;2023-07-29T15:12:47;5.82;;;5.32;;
17566;SDS011;8901;52.088;5.084;2023-07-29T15:15:14;7.32;;;6.63;;
17566;SDS011;8901;52.088;5.084;2023-07-29T15:17:42;5.97;;;5.47;;
17566;SDS011;8901;52.088;5.084;2023-07-29T15:20:09;6.93;;;6.38;;
17566;SDS011;8901;52.088;5.084;2023-07-29T15:22:37;7.32;;;5.93;;
17566;SDS011;8901;52.088;5.084;2023-07-29T15:25:04;7.93;;;4.95;;
17566;SDS011;8901;52.088;5.084;2023-07-29T15:27:33;6.03;;;5.53;;
17566;SDS011;8901;52.088;5.084;2023-07-29T15:30:02;6.28;;;5.68;;
17566;SDS011;8901;52.088;5.084;2023-07-29T15:32:32;6.00;;;5.50;;
17566;SDS011;8901;52.088;5.084;2023-07-29T15:35:00;7.05;;;6.10;;
17566;SDS011;8901;52.088;5.084;2023-07-29T15:37:28;6.30;;;5.80;;
17566;SDS011;8901;52.088;5.084;2023-07-29T15:39:57;4.32;;;4.03;;
17566;SDS011;8901;52.088;5.084;2023-07-29T15:42:24;5.85;;;5.35;;
17566;SDS011;8901;52.088;5.084;2023-07-29T15:44:51;5.22;;;4.80;;
17566;SDS011;8901;52.088;5.084;2023-07-29T15:47:20;5.80;;;5.38;;
17566;SDS011;8901;52.088;5.084;2023-07-29T15:49:47;5.63;;;5.18;;
17566;SDS011;8901;52.088;5.084;2023-07-29T15:52:14;5.65;;;5.25;;
17566;SDS011;8901;52.088;5.084;2023-07-29T15:54:42;5.43;;;5.13;;
17566;SDS011;8901;52.088;5.084;2023-07-29T15:57:09;5.68;;;5.18;;
17566;SDS011;8901;52.088;5.084;2023-07-29T15:59:37;5.43;;;5.03;;
17566;SDS011;8901;52.088;5.084;2023-07-29T16:02:05;5.82;;;5.32;;
17566;SDS011;8901;52.088;5.084;2023-07-29T16:04:35;5.45;;;5.15;;
17566;SDS011;8901;52.088;5.084;2023-07-29T16:07:02;5.60;;;5.20;;
17566;SDS011;8901;52.088;5.084;2023-07-29T16:09:29;6.13;;;5.63;;
17566;SDS011;8901;52.088;5.084;2023-07-29T16:11:56;5.80;;;5.40;;